Time;durP1;ratioP1;P1;durP2;ratioP2;P2;SDS_P1;SDS_P2;PMS_P1;PMS_P2;Temp;Humidity;BMP_temperature;BMP_pressure;BME280_temperature;BME280_humidity;BME280_pressure;Samples;Min_cycle;Max_cycle;Signal;HPM_P1;HPM_P2
2022/03/03 00:02:17;;;;;;;38.20;16.70;;;1.40;99.90;;;;;;6279995;22;20370;-87
2022/03/03 00:04:43;;;;;;;38.95;16.67;;;0.90;99.90;;;;;;6306929;22;20047;-88
2022/03/03 00:07:09;;;;;;;44.80;17.83;;;1.20;99.90;;;;;;6278999;22;20027;-87
2022/03/03 00:09:34;;;;;;;50.28;22.00;;;1.10;99.90;;;;;;6278811;22;20016;-87
2022/03/03 00:12:00;;;;;;;44.67;19.45;;;0.40;99.90;;;;;;6306859;22;20051;-88
2022/03/03 00:14:26;;;;;;;53.78;20.83;;;0.40;99.90;;;;;;6306808;22;20011;-87
2022/03/03 00:16:52;;;;;;;57.30;20.83;;;0.30;99.90;;;;;;6279410;22;20015;-87
2022/03/03 00:19:17;;;;;;;43.08;18.77;;;0.30;99.90;;;;;;6279262;22;20096;-88
2022/03/03 00:21:43;;;;;;;45.03;18.90;;;-0.10;99.90;;;;;;6279658;22;20482;-86
2022/03/03 00:24:09;;;;;;;48.40;18.58;;;1.30;99.90;;;;;;6306564;22;20435;-86
2022/03/03 00:26:34;;;;;;;37.28;15.52;;;0.20;99.90;;;;;;6253476;22;20026;-88
2022/03/03 00:29:00;;;;;;;39.47;16.30;;;0.90;99.90;;;;;;6306428;22;20022;-88
2022/03/03 00:31:26;;;;;;;40.13;16.45;;;0.50;99.90;;;;;;6254037;22;20069;-87
2022/03/03 00:33:51;;;;;;;40.05;17.10;;;1.20;99.90;;;;;;6306246;22;20015;-88
2022/03/03 00:36:17;;;;;;;37.90;15.93;;;0.30;99.90;;;;;;6306691;22;20217;-87
2022/03/03 00:38:43;;;;;;;38.55;15.63;;;-0.50;99.90;;;;;;6279569;22;20023;-87
2022/03/03 00:41:09;;;;;;;34.92;14.27;;;0.70;99.90;;;;;;6253290;22;20105;-87
2022/03/03 00:43:34;;;;;;;39.40;15.70;;;0.10;99.90;;;;;;6279025;22;20031;-88
2022/03/03 00:46:00;;;;;;;35.42;14.52;;;0.50;99.90;;;;;;6278882;22;20015;-87
2022/03/03 00:48:26;;;;;;;36.75;15.05;;;1.60;99.90;;;;;;6306254;22;20011;-88
2022/03/03 00:50:52;;;;;;;39.08;15.38;;;0.10;99.90;;;;;;6279164;22;20065;-88
2022/03/03 00:53:17;;;;;;;35.00;15.10;;;0.80;99.90;;;;;;6278728;22;20023;-87
2022/03/03 00:55:43;;;;;;;39.65;16.23;;;0.40;99.90;;;;;;6306524;22;20019;-87
2022/03/03 00:58:09;;;;;;;38.80;16.50;;;0.60;99.90;;;;;;6279139;22;20286;-87
2022/03/03 01:00:35;;;;;;;33.22;13.93;;;-0.10;99.90;;;;;;6279168;22;20011;-88
2022/03/03 01:03:01;;;;;;;34.58;15.77;;;-0.10;99.90;;;;;;6279374;22;20015;-88
2022/03/03 01:05:27;;;;;;;35.05;14.30;;;0.60;99.90;;;;;;6306094;22;20382;-87
2022/03/03 01:07:53;;;;;;;39.65;15.15;;;-0.20;99.90;;;;;;6279263;22;20042;-88
2022/03/03 01:10:18;;;;;;;39.30;15.30;;;-0.20;99.90;;;;;;6279089;22;20016;-87
2022/03/03 01:12:44;;;;;;;41.47;18.55;;;1.10;99.90;;;;;;6306740;22;20026;-87
2022/03/03 01:15:11;;;;;;;31.75;14.60;;;0.20;99.90;;;;;;6279080;22;20015;-87
2022/03/03 01:17:36;;;;;;;37.72;15.57;;;-0.20;99.90;;;;;;6305924;22;20398;-87
2022/03/03 01:20:05;;;;;;;30.88;13.88;;;-0.20;99.90;;;;;;6279745;22;20019;-86
2022/03/03 01:22:30;;;;;;;32.70;14.45;;;-0.20;99.90;;;;;;6308432;22;20138;-87
2022/03/03 01:24:56;;;;;;;38.20;14.73;;;-0.20;99.90;;;;;;6308113;22;20419;-88
2022/03/03 01:27:22;;;;;;;35.30;14.63;;;-0.30;99.90;;;;;;6280977;22;20103;-87
2022/03/03 01:29:47;;;;;;;35.70;15.02;;;-0.30;99.90;;;;;;6281014;22;20019;-88
2022/03/03 01:32:13;;;;;;;36.05;14.93;;;-0.30;99.90;;;;;;6308752;22;20513;-85
2022/03/03 01:34:39;;;;;;;36.03;14.60;;;-0.30;99.90;;;;;;6308149;22;20019;-87
2022/03/03 01:37:05;;;;;;;39.45;16.77;;;0.00;99.90;;;;;;6308457;22;20385;-88
2022/03/03 01:39:31;;;;;;;35.35;15.43;;;-0.30;99.90;;;;;;6307793;22;20622;-87
2022/03/03 01:41:57;;;;;;;43.33;17.08;;;0.90;99.90;;;;;;6308426;22;20073;-87
2022/03/03 01:44:23;;;;;;;38.78;16.27;;;0.30;99.90;;;;;;6280848;22;20015;-87
2022/03/03 01:46:55;;;;;;;41.53;16.88;;;0.40;99.90;;;;;;6280589;22;20098;-88
2022/03/03 01:49:21;;;;;;;38.90;15.80;;;0.80;99.90;;;;;;6308504;22;20023;-87
2022/03/03 01:51:47;;;;;;;36.92;15.98;;;-0.10;99.90;;;;;;6280883;22;20020;-88
2022/03/03 01:54:13;;;;;;;31.08;15.40;;;-1.20;99.90;;;;;;6280457;22;20116;-88
2022/03/03 01:56:42;;;;;;;35.63;15.10;;;0.60;99.90;;;;;;6280450;22;20346;-88
2022/03/03 01:59:09;;;;;;;34.65;14.80;;;-0.10;99.90;;;;;;6307572;22;20465;-86
2022/03/03 02:01:36;;;;;;;34.22;15.07;;;-0.90;99.90;;;;;;6249783;22;20350;-88
2022/03/03 02:04:06;;;;;;;34.80;15.20;;;0.30;99.90;;;;;;6249729;22;20073;-87
2022/03/03 02:06:32;;;;;;;34.10;14.80;;;-0.60;99.90;;;;;;6276592;22;20022;-88
2022/03/03 02:08:58;;;;;;;35.58;15.45;;;-0.40;99.90;;;;;;6277173;22;20098;-89
2022/03/03 02:11:24;;;;;;;34.85;14.27;;;-0.80;99.90;;;;;;6249921;22;20050;-87
2022/03/03 02:13:50;;;;;;;35.60;13.68;;;0.40;99.90;;;;;;6276565;22;20019;-83
2022/03/03 02:16:16;;;;;;;32.47;13.85;;;-0.80;99.90;;;;;;6277316;22;20008;-88
2022/03/03 02:18:44;;;;;;;30.20;12.90;;;-0.80;99.90;;;;;;6250005;22;20015;-86
2022/03/03 02:21:15;;;;;;;32.35;13.75;;;-0.20;99.90;;;;;;6276883;22;20066;-86
2022/03/03 02:23:41;;;;;;;31.38;14.15;;;-0.80;99.90;;;;;;6249877;22;20020;-86
2022/03/03 02:26:10;;;;;;;29.30;13.45;;;-0.80;99.90;;;;;;6249729;22;20095;-84
2022/03/03 02:28:37;;;;;;;31.05;14.48;;;-0.20;99.90;;;;;;6276636;22;20069;-83
2022/03/03 02:31:03;;;;;;;31.90;13.43;;;0.40;99.90;;;;;;6249558;22;20022;-85
2022/03/03 02:33:28;;;;;;;32.70;13.38;;;-0.50;99.90;;;;;;6276650;22;20016;-84
2022/03/03 02:35:54;;;;;;;35.80;14.45;;;-1.10;99.90;;;;;;6248862;22;20019;-83
2022/03/03 02:38:20;;;;;;;33.75;13.77;;;-0.80;99.90;;;;;;6249875;22;20369;-85
2022/03/03 02:40:46;;;;;;;32.10;13.43;;;-0.90;99.90;;;;;;6249955;22;20341;-84
2022/03/03 02:43:11;;;;;;;31.55;14.43;;;-0.90;99.90;;;;;;6276559;22;20015;-84
2022/03/03 02:45:37;;;;;;;33.35;14.05;;;-0.60;99.90;;;;;;6276903;22;20016;-86
2022/03/03 02:48:03;;;;;;;33.10;13.82;;;-0.20;99.90;;;;;;6249226;22;20047;-85
2022/03/03 02:50:29;;;;;;;36.15;14.70;;;-1.00;99.90;;;;;;6249574;22;20034;-86
2022/03/03 02:52:57;;;;;;;35.08;14.88;;;-0.90;99.90;;;;;;6276122;22;20472;-86
2022/03/03 02:55:22;;;;;;;31.10;14.52;;;0.20;99.90;;;;;;6276287;22;20015;-86
2022/03/03 02:57:54;;;;;;;36.13;15.73;;;1.40;99.90;;;;;;6276871;22;20023;-86
2022/03/03 03:00:29;;;;;;;34.28;14.32;;;-1.10;99.90;;;;;;6291403;22;20012;-86
2022/03/03 03:02:55;;;;;;;38.95;15.48;;;-1.10;99.90;;;;;;6306874;22;20438;-86
2022/03/03 03:05:21;;;;;;;28.45;14.00;;;-1.10;99.90;;;;;;6279902;22;20050;-87
2022/03/03 03:07:47;;;;;;;34.25;16.25;;;-1.20;99.90;;;;;;6280274;22;20019;-86
2022/03/03 03:10:13;;;;;;;41.65;18.08;;;-0.40;99.90;;;;;;6279558;22;20140;-86
2022/03/03 03:12:38;;;;;;;34.95;15.27;;;-0.70;99.90;;;;;;6280168;22;20050;-85
2022/03/03 03:15:05;;;;;;;32.70;14.93;;;-0.10;99.90;;;;;;6306970;22;20073;-86
2022/03/03 03:17:31;;;;;;;32.90;14.48;;;-1.00;99.90;;;;;;6280164;22;20015;-87
2022/03/03 03:19:56;;;;;;;30.95;13.60;;;-1.00;99.90;;;;;;6307371;22;20061;-85
2022/03/03 03:22:22;;;;;;;32.53;14.48;;;0.10;99.90;;;;;;6279650;22;20019;-87
2022/03/03 03:24:48;;;;;;;31.30;14.55;;;-1.10;99.90;;;;;;6280318;22;20023;-87
2022/03/03 03:27:14;;;;;;;35.92;13.95;;;-1.10;99.90;;;;;;6307290;22;20022;-87
2022/03/03 03:29:40;;;;;;;33.88;14.05;;;-1.00;99.90;;;;;;6307038;22;20034;-86
2022/03/03 03:32:06;;;;;;;37.92;16.13;;;0.00;99.90;;;;;;6306693;22;20015;-87
2022/03/03 03:34:31;;;;;;;31.67;15.30;;;-1.10;99.90;;;;;;6307330;22;20030;-87
2022/03/03 03:36:57;;;;;;;36.67;15.68;;;0.00;99.90;;;;;;6307034;22;20428;-87
2022/03/03 03:39:23;;;;;;;33.47;16.20;;;-1.20;99.90;;;;;;6279777;22;20469;-86
2022/03/03 03:41:49;;;;;;;33.67;14.80;;;-0.30;99.90;;;;;;6307080;22;20011;-87
2022/03/03 03:44:14;;;;;;;40.35;15.43;;;-1.10;99.90;;;;;;6279443;22;20047;-87
2022/03/03 03:46:40;;;;;;;36.50;15.32;;;-1.30;99.90;;;;;;6307197;22;20030;-87
2022/03/03 03:49:06;;;;;;;41.88;17.15;;;-0.60;99.90;;;;;;6306892;22;20086;-86
2022/03/03 03:51:32;;;;;;;40.50;18.17;;;-1.20;99.90;;;;;;6307432;22;20012;-84
2022/03/03 03:53:58;;;;;;;44.25;19.10;;;-1.20;99.90;;;;;;6279534;22;20445;-87
2022/03/03 03:56:23;;;;;;;45.25;19.40;;;-1.20;99.90;;;;;;6307123;22;20087;-87
2022/03/03 03:58:50;;;;;;;38.97;17.30;;;-1.20;99.90;;;;;;6307068;22;20174;-86
2022/03/03 04:01:16;;;;;;;33.58;17.15;;;-1.20;99.90;;;;;;6306616;22;20019;-85
2022/03/03 04:03:42;;;;;;;38.13;16.25;;;-1.30;99.90;;;;;;6306949;22;20023;-87
2022/03/03 04:06:08;;;;;;;37.05;16.02;;;-0.60;99.90;;;;;;6279315;22;20023;-88
2022/03/03 04:08:34;;;;;;;38.03;15.75;;;-1.30;99.90;;;;;;6306872;22;20023;-87
2022/03/03 04:11:00;;;;;;;38.53;15.15;;;-1.20;99.90;;;;;;6307181;22;20319;-87
2022/03/03 04:13:25;;;;;;;30.27;14.52;;;-1.40;99.90;;;;;;6306855;22;20054;-86
2022/03/03 04:15:51;;;;;;;28.63;14.43;;;-1.40;99.90;;;;;;6307046;22;20023;-85
2022/03/03 04:18:17;;;;;;;31.85;14.77;;;-1.40;99.90;;;;;;6307050;22;20329;-87
2022/03/03 04:20:42;;;;;;;38.40;16.40;;;-1.40;99.90;;;;;;6306998;22;20012;-86
2022/03/03 04:23:08;;;;;;;35.38;13.52;;;-1.40;99.90;;;;;;6306736;22;20021;-86
2022/03/03 04:25:34;;;;;;;32.38;14.30;;;-1.40;99.90;;;;;;6307125;22;20011;-87
2022/03/03 04:28:02;;;;;;;35.00;16.13;;;-1.40;99.90;;;;;;6278955;22;20346;-87
2022/03/03 04:30:28;;;;;;;32.88;15.00;;;-1.40;99.90;;;;;;6306353;22;20018;-85
2022/03/03 04:32:53;;;;;;;36.40;15.85;;;-1.40;99.90;;;;;;6306589;22;20060;-86
2022/03/03 04:35:19;;;;;;;33.22;15.63;;;-1.40;99.90;;;;;;6279775;22;20501;-87
2022/03/03 04:37:45;;;;;;;32.35;14.68;;;-0.80;99.90;;;;;;6306930;22;20144;-87
2022/03/03 04:40:10;;;;;;;41.28;17.33;;;-1.40;99.90;;;;;;6278805;22;20433;-85
2022/03/03 04:42:37;;;;;;;38.88;18.40;;;-0.90;99.90;;;;;;6306554;22;20019;-87
2022/03/03 04:45:04;;;;;;;40.75;18.58;;;-1.30;99.90;;;;;;6306434;22;20015;-87
2022/03/03 04:47:30;;;;;;;43.22;19.02;;;-1.30;99.90;;;;;;6306528;22;20098;-86
2022/03/03 04:49:56;;;;;;;39.65;19.70;;;-1.30;99.90;;;;;;6306720;22;20042;-86
2022/03/03 04:52:21;;;;;;;53.60;23.92;;;-1.40;99.90;;;;;;6306490;22;20454;-86
2022/03/03 04:54:48;;;;;;;44.80;19.23;;;-1.40;99.90;;;;;;6306801;22;20022;-87
2022/03/03 04:57:14;;;;;;;36.05;16.92;;;-1.50;99.90;;;;;;6306751;22;20011;-86
2022/03/03 04:59:40;;;;;;;45.95;21.88;;;-1.50;99.90;;;;;;6305787;22;20038;-85
2022/03/03 05:02:06;;;;;;;46.17;20.35;;;-1.50;99.90;;;;;;6279118;22;20057;-87
2022/03/03 05:04:32;;;;;;;40.92;19.38;;;-1.50;99.90;;;;;;6306341;22;20015;-85
2022/03/03 05:06:57;;;;;;;44.72;19.95;;;-1.50;99.90;;;;;;6306743;22;20025;-84
2022/03/03 05:09:23;;;;;;;44.63;19.65;;;-1.50;99.90;;;;;;6279200;22;20327;-81
2022/03/03 05:11:49;;;;;;;39.30;18.70;;;-1.50;99.90;;;;;;6306396;22;20015;-82
2022/03/03 05:14:14;;;;;;;42.88;19.02;;;-0.80;99.90;;;;;;6278975;22;20007;-82
2022/03/03 05:16:40;;;;;;;40.50;18.55;;;-1.50;99.90;;;;;;6278916;22;20050;-82
2022/03/03 05:19:06;;;;;;;39.95;17.25;;;-1.50;99.90;;;;;;6278985;22;20072;-82
2022/03/03 05:21:31;;;;;;;37.50;16.92;;;-1.50;99.90;;;;;;6305984;22;20082;-82
2022/03/03 05:23:58;;;;;;;40.47;17.75;;;-1.50;99.90;;;;;;6306516;22;20019;-86
2022/03/03 05:26:24;;;;;;;37.53;17.23;;;-0.80;99.90;;;;;;6306512;22;20022;-87
2022/03/03 05:28:50;;;;;;;42.47;19.38;;;-1.20;99.90;;;;;;6306044;22;20023;-84
2022/03/03 05:31:16;;;;;;;38.90;17.38;;;-0.40;99.90;;;;;;6279014;22;20015;-85
2022/03/03 05:33:43;;;;;;;41.90;17.10;;;-1.60;99.90;;;;;;6306101;22;20110;-85
2022/03/03 05:36:10;;;;;;;36.58;17.55;;;-1.60;99.90;;;;;;6306581;22;20061;-85
2022/03/03 05:38:36;;;;;;;34.33;15.23;;;-0.50;99.90;;;;;;6278643;22;20023;-81
2022/03/03 05:41:03;;;;;;;40.28;17.58;;;-1.60;99.90;;;;;;6279024;22;20019;-85
2022/03/03 05:43:30;;;;;;;40.05;17.95;;;-1.60;99.90;;;;;;6278785;22;20094;-84
2022/03/03 05:45:56;;;;;;;35.95;15.32;;;-1.60;99.90;;;;;;6278739;22;20053;-85
2022/03/03 05:48:23;;;;;;;35.05;16.08;;;-1.30;99.90;;;;;;6306521;22;20015;-86
2022/03/03 05:50:49;;;;;;;31.55;14.40;;;-1.60;99.90;;;;;;6306691;22;20012;-85
2022/03/03 05:53:16;;;;;;;34.88;17.33;;;-1.60;99.90;;;;;;6279254;22;20011;-85
2022/03/03 05:55:44;;;;;;;41.28;19.65;;;-2.20;99.90;;;;;;6306102;22;20011;-86
2022/03/03 05:58:15;;;;;;;37.45;16.77;;;-0.90;99.90;;;;;;6306246;22;20011;-86
2022/03/03 06:00:45;;;;;;;35.90;15.38;;;-1.60;99.90;;;;;;6305971;22;20035;-86
2022/03/03 06:03:17;;;;;;;35.20;14.95;;;-1.70;99.90;;;;;;6306431;22;20023;-85
2022/03/03 06:05:52;;;;;;;31.02;14.75;;;-1.40;99.90;;;;;;6306088;22;20446;-86
2022/03/03 06:08:30;;;;;;;35.15;15.07;;;-1.60;99.90;;;;;;6280649;22;20019;-87
2022/03/03 06:11:01;;;;;;;33.65;14.48;;;-1.70;99.90;;;;;;6279912;22;20019;-87
2022/03/03 06:13:38;;;;;;;37.45;16.38;;;-1.60;99.90;;;;;;6307958;22;20511;-86
2022/03/03 06:16:05;;;;;;;30.55;15.43;;;-1.60;99.90;;;;;;6308232;22;20453;-81
2022/03/03 06:18:32;;;;;;;38.00;15.35;;;-1.60;99.90;;;;;;6308020;22;20022;-87
2022/03/03 06:20:59;;;;;;;35.13;16.40;;;-2.50;99.90;;;;;;6280218;22;20019;-85
2022/03/03 06:23:24;;;;;;;36.50;17.05;;;-1.60;99.90;;;;;;6307524;22;20060;-85
2022/03/03 06:26:09;;;;;;;38.85;17.38;;;-1.60;99.90;;;;;;6308219;22;20042;-81
2022/03/03 06:28:35;;;;;;;44.90;19.05;;;-1.60;99.90;;;;;;6307629;22;20113;-84
2022/03/03 06:31:03;;;;;;;48.55;19.48;;;-1.60;99.90;;;;;;6280136;22;20449;-81
2022/03/03 06:33:29;;;;;;;36.72;16.85;;;-1.60;99.90;;;;;;6308174;22;20087;-81
2022/03/03 06:35:55;;;;;;;33.80;15.75;;;-1.60;99.90;;;;;;6308134;22;20039;-81
2022/03/03 06:38:21;;;;;;;40.97;18.15;;;-1.60;99.90;;;;;;6308555;22;20011;-83
2022/03/03 06:40:46;;;;;;;49.08;22.50;;;-1.60;99.90;;;;;;6308305;22;20507;-82
2022/03/03 06:43:12;;;;;;;40.85;18.67;;;-1.10;99.90;;;;;;6307572;22;20023;-79
2022/03/03 06:45:38;;;;;;;51.40;21.02;;;-1.60;99.90;;;;;;6307663;22;20404;-83
2022/03/03 06:48:04;;;;;;;48.78;20.77;;;-1.60;99.90;;;;;;6307632;22;20012;-82
2022/03/03 06:50:35;;;;;;;45.47;20.65;;;-1.60;99.90;;;;;;6308060;22;20015;-82
2022/03/03 06:53:03;;;;;;;48.20;20.10;;;-1.60;99.90;;;;;;6307908;22;20011;-83
2022/03/03 06:55:30;;;;;;;49.13;21.50;;;-1.60;99.90;;;;;;6280471;22;20514;-81
2022/03/03 06:57:57;;;;;;;42.97;19.02;;;-0.50;99.90;;;;;;6308084;22;20027;-82
2022/03/03 07:00:32;;;;;;;38.50;18.52;;;-1.60;99.90;;;;;;6306815;22;20086;-81
2022/03/03 07:02:58;;;;;;;36.17;16.67;;;-1.50;99.90;;;;;;6307565;22;20027;-82
2022/03/03 07:05:23;;;;;;;38.17;16.58;;;-1.50;99.90;;;;;;6307865;22;20133;-83
2022/03/03 07:07:52;;;;;;;37.15;16.80;;;-1.50;99.90;;;;;;6280265;22;20049;-84
2022/03/03 07:10:25;;;;;;;48.08;20.38;;;-0.70;99.90;;;;;;6307347;22;20069;-83
2022/03/03 07:12:55;;;;;;;46.15;21.48;;;-1.40;99.90;;;;;;6280357;22;20016;-82
2022/03/03 07:15:23;;;;;;;41.13;17.88;;;-1.30;99.90;;;;;;6307579;22;20011;-83
2022/03/03 07:18:10;;;;;;;46.80;20.08;;;-1.30;99.90;;;;;;6307632;22;20018;-85
2022/03/03 07:21:13;;;;;;;42.15;18.83;;;-1.20;99.90;;;;;;6278817;22;20015;-82
2022/03/03 07:23:44;;;;;;;50.75;20.73;;;-1.20;99.90;;;;;;6307475;22;20022;-84
2022/03/03 07:26:13;;;;;;;49.65;19.40;;;-1.00;99.90;;;;;;6307441;22;20393;-84
2022/03/03 07:28:44;;;;;;;44.63;20.13;;;-0.40;99.90;;;;;;6279752;22;20327;-84
2022/03/03 07:39:30;;;;;;;48.67;20.08;;;-0.50;99.90;;;;;;6274687;22;20019;-84
2022/03/03 07:42:24;;;;;;;46.92;21.05;;;0.40;99.90;;;;;;6283881;22;20030;-83
2022/03/03 07:45:18;;;;;;;51.40;21.50;;;0.60;99.90;;;;;;6283787;22;20011;-83
2022/03/03 07:47:49;;;;;;;41.03;18.33;;;-0.10;99.90;;;;;;6278107;22;20070;-83
2022/03/03 07:50:39;;;;;;;49.67;21.98;;;0.00;99.90;;;;;;6276553;22;20073;-82
2022/03/03 07:53:40;;;;;;;54.25;23.63;;;0.00;99.90;;;;;;6301105;22;20011;-83
2022/03/03 07:56:31;;;;;;;49.97;21.85;;;0.20;99.90;;;;;;6183008;23;20025;-83
2022/03/03 07:59:11;;;;;;;46.88;19.63;;;0.60;99.90;;;;;;6157222;22;20092;-85
2022/03/03 08:01:44;;;;;;;43.83;19.15;;;0.40;99.90;;;;;;6181390;23;20017;-84
2022/03/03 08:04:21;;;;;;;49.35;20.65;;;0.50;99.90;;;;;;6183198;23;20028;-83
2022/03/03 08:06:54;;;;;;;44.47;20.77;;;1.00;99.90;;;;;;6209740;22;20070;-82
2022/03/03 08:09:41;;;;;;;44.70;20.15;;;0.40;99.90;;;;;;6257451;22;20023;-83
2022/03/03 08:12:07;;;;;;;48.97;20.92;;;2.00;99.90;;;;;;6251650;22;20054;-85
2022/03/03 08:14:52;;;;;;;37.65;18.00;;;0.80;99.90;;;;;;6223413;22;20031;-84
2022/03/03 08:17:23;;;;;;;41.88;19.27;;;0.50;99.90;;;;;;6274766;22;20031;-83
2022/03/03 08:19:51;;;;;;;39.13;17.48;;;0.90;99.90;;;;;;6249094;22;20145;-83
2022/03/03 08:22:37;;;;;;;36.75;16.85;;;1.20;99.90;;;;;;6248818;22;20035;-84
2022/03/03 08:25:18;;;;;;;39.30;17.58;;;1.40;99.90;;;;;;6249079;22;20015;-84
2022/03/03 08:27:49;;;;;;;35.70;16.35;;;1.30;99.90;;;;;;6247789;22;20016;-84
2022/03/03 08:30:21;;;;;;;41.85;18.58;;;1.90;99.90;;;;;;6275166;22;20469;-84
2022/03/03 08:33:11;;;;;;;33.80;15.63;;;1.50;99.90;;;;;;6248232;22;20012;-86
2022/03/03 08:35:43;;;;;;;33.95;15.13;;;1.60;99.90;;;;;;6248979;22;20011;-87
2022/03/03 08:38:22;;;;;;;34.05;16.25;;;2.40;99.90;;;;;;6248027;22;20019;-85
2022/03/03 08:40:50;;;;;;;55.47;23.98;;;1.80;99.90;;;;;;6248085;22;20011;-85
2022/03/03 08:43:20;;;;;;;48.53;21.17;;;2.00;99.90;;;;;;6248620;22;20024;-87
2022/03/03 08:45:48;;;;;;;44.97;20.23;;;3.10;99.90;;;;;;6275415;22;20508;-85
2022/03/03 08:48:15;;;;;;;47.63;21.70;;;2.10;99.90;;;;;;6274257;22;20099;-84
2022/03/03 08:50:42;;;;;;;51.45;22.88;;;2.40;99.90;;;;;;6248546;22;20346;-86
2022/03/03 08:53:10;;;;;;;48.13;22.40;;;3.30;99.90;;;;;;6247912;22;20020;-86
2022/03/03 08:55:38;;;;;;;46.80;22.10;;;2.30;99.90;;;;;;6275568;22;20346;-86
2022/03/03 08:58:04;;;;;;;49.78;23.60;;;2.80;99.90;;;;;;6271418;22;20272;-86
2022/03/03 09:00:30;;;;;;;54.75;23.23;;;2.80;99.90;;;;;;6275105;22;20363;-83
2022/03/03 09:02:57;;;;;;;44.65;21.33;;;2.90;99.90;;;;;;6247181;22;20043;-85
2022/03/03 09:05:26;;;;;;;46.78;20.10;;;2.90;99.90;;;;;;6275321;22;20439;-85
2022/03/03 09:07:58;;;;;;;44.65;21.25;;;4.10;99.90;;;;;;6270093;22;20019;-85
2022/03/03 09:10:24;;;;;;;46.28;22.23;;;4.00;99.90;;;;;;6252140;22;20011;-85
2022/03/03 09:12:52;;;;;;;50.38;20.95;;;3.30;99.90;;;;;;6279008;22;20345;-85
2022/03/03 09:15:18;;;;;;;39.95;18.40;;;3.60;99.90;;;;;;6278667;22;20073;-86
2022/03/03 09:18:26;;;;;;;44.88;21.08;;;4.60;99.90;;;;;;6277855;22;20019;-87
2022/03/03 09:24:12;;;;;;;48.45;23.17;;;3.70;99.90;;;;;;6304496;22;20038;-84
2022/03/03 09:26:44;;;;;;;45.58;21.90;;;4.00;99.90;;;;;;6277113;22;20055;-84
2022/03/03 09:29:26;;;;;;;46.00;21.92;;;3.90;99.90;;;;;;6277237;22;20090;-85
2022/03/03 09:32:20;;;;;;;41.00;19.90;;;4.10;99.90;;;;;;6272173;22;20077;-85
2022/03/03 09:34:45;;;;;;;40.65;19.52;;;3.40;99.90;;;;;;6198927;22;20134;-87
2022/03/03 09:37:44;;;;;;;34.67;17.27;;;5.40;99.90;;;;;;6273664;22;20055;-85
2022/03/03 09:40:32;;;;;;;32.63;15.52;;;4.40;99.90;;;;;;6276706;22;20026;31
2022/03/03 09:46:47;;;;;;;34.03;17.58;;;4.90;99.90;;;;;;6159612;23;20025;-85
2022/03/03 09:49:13;;;;;;;33.20;16.75;;;4.90;99.90;;;;;;6185846;23;20112;-83
2022/03/03 09:51:43;;;;;;;32.33;15.88;;;4.50;99.90;;;;;;6160252;23;20025;-85
2022/03/03 09:54:09;;;;;;;30.30;15.35;;;6.00;99.90;;;;;;6159792;23;20029;-84
2022/03/03 09:56:37;;;;;;;28.88;15.20;;;5.30;99.90;;;;;;6187031;23;20024;-85
2022/03/03 09:59:04;;;;;;;30.00;14.48;;;5.40;99.90;;;;;;6186802;23;20039;-84
2022/03/03 10:01:31;;;;;;;27.60;15.70;;;5.10;99.90;;;;;;6185909;23;20436;-86
2022/03/03 10:11:09;;;;;;;28.80;14.90;;;5.90;99.90;;;;;;6185024;23;20032;-83
2022/03/03 10:14:12;;;;;;;29.27;15.30;;;6.20;99.90;;;;;;6159943;23;20013;-84
2022/03/03 10:16:36;;;;;;;26.85;14.20;;;6.30;99.90;;;;;;6185125;23;20352;-83
2022/03/03 10:19:13;;;;;;;27.83;13.68;;;6.40;99.90;;;;;;6185899;23;20017;-84
2022/03/03 10:21:41;;;;;;;27.88;14.80;;;6.50;99.90;;;;;;6160030;23;20032;-81
2022/03/03 10:24:30;;;;;;;25.27;14.13;;;6.60;99.90;;;;;;6160102;23;20452;-82
2022/03/03 10:27:01;;;;;;;24.70;13.57;;;6.70;99.90;;;;;;6186463;23;20013;-80
2022/03/03 10:29:28;;;;;;;25.45;12.77;;;6.70;99.90;;;;;;6159835;23;20463;-86
2022/03/03 10:31:56;;;;;;;25.65;13.32;;;7.50;99.90;;;;;;6185249;23;20072;-84
2022/03/03 10:34:37;;;;;;;21.70;11.80;;;7.40;99.90;;;;;;6186258;23;20416;-85
2022/03/03 10:37:10;;;;;;;22.05;12.18;;;7.00;99.90;;;;;;6186536;23;20021;-83
2022/03/03 10:39:41;;;;;;;26.52;13.00;;;7.10;99.90;;;;;;6158587;23;20016;-84
2022/03/03 10:42:19;;;;;;;25.40;13.50;;;8.00;99.90;;;;;;6178999;23;20346;-84
2022/03/03 10:44:46;;;;;;;26.52;13.88;;;7.30;99.90;;;;;;6216179;23;20024;-84
2022/03/03 10:47:16;;;;;;;24.70;13.95;;;7.70;99.90;;;;;;6189501;23;20013;-85
2022/03/03 10:49:47;;;;;;;21.08;12.07;;;7.40;99.90;;;;;;6189148;23;20051;-86
2022/03/03 10:52:22;;;;;;;23.00;13.07;;;7.30;99.90;;;;;;6189447;23;20074;-86
2022/03/03 10:54:48;;;;;;;22.80;12.32;;;7.50;99.90;;;;;;6189295;23;20013;-84
2022/03/03 10:57:42;;;;;;;26.35;14.35;;;8.60;99.90;;;;;;6188527;23;20013;-83
2022/03/03 11:00:25;;;;;;;25.83;14.23;;;7.80;99.90;;;;;;6216049;23;20017;-84
2022/03/03 11:02:53;;;;;;;22.98;12.73;;;7.80;99.90;;;;;;6188528;23;20084;-85
2022/03/03 11:05:22;;;;;;;20.83;12.48;;;7.90;99.90;;;;;;6189360;23;20091;-84
2022/03/03 11:07:49;;;;;;;21.90;12.40;;;7.90;99.90;;;;;;6215723;23;20024;-85
2022/03/03 11:10:18;;;;;;;23.25;13.50;;;8.80;99.90;;;;;;6216155;23;20013;-84
2022/03/03 11:12:45;;;;;;;25.48;13.95;;;8.10;99.90;;;;;;6216181;23;20013;-83
2022/03/03 11:15:17;;;;;;;26.80;14.40;;;8.10;99.90;;;;;;6215946;23;20017;-83
2022/03/03 11:17:43;;;;;;;26.98;14.52;;;8.10;99.90;;;;;;6189655;23;20095;-83
2022/03/03 11:20:37;;;;;;;28.33;15.57;;;8.20;99.90;;;;;;6188454;23;20017;-86
2022/03/03 11:23:36;;;;;;;29.98;15.60;;;8.30;99.90;;;;;;6043729;23;20026;-86
2022/03/03 11:26:02;;;;;;;28.42;15.52;;;8.30;99.90;;;;;;6045211;23;20023;-85
2022/03/03 11:28:36;;;;;;;24.13;14.43;;;8.90;99.90;;;;;;6042141;23;20026;-85
2022/03/03 11:31:27;;;;;;;27.52;15.18;;;8.30;99.90;;;;;;6042344;23;20060;-86
2022/03/03 11:34:31;;;;;;;;;;;;;;;;;;;;;
2022/03/03 11:37:55;;;;;;;31.02;16.02;;;8.80;99.90;;;;;;6061672;23;20022;-87
2022/03/03 11:41:38;;;;;;;;;;;;;;;;;;;;;
2022/03/03 11:54:57;;;;;;;28.00;14.85;;;8.60;99.90;;;;;;6335603;22;20136;-87
2022/03/03 11:58:37;;;;;;;28.38;14.65;;;8.60;99.90;;;;;;6339243;22;20022;-86
2022/03/03 12:07:53;;;;;;;26.52;14.65;;;8.80;99.90;;;;;;6274604;22;20027;-87
2022/03/03 12:10:22;;;;;;;25.50;14.25;;;8.80;99.90;;;;;;6274063;22;20016;-86
2022/03/03 12:12:49;;;;;;;27.40;14.82;;;9.80;99.90;;;;;;6276358;22;20449;-85
2022/03/03 12:15:15;;;;;;;26.42;15.27;;;8.90;99.90;;;;;;6274694;22;20019;-83
2022/03/03 12:17:46;;;;;;;31.05;16.65;;;9.30;99.90;;;;;;6276108;22;20099;-84
2022/03/03 12:20:34;;;;;;;25.23;14.77;;;9.00;99.90;;;;;;6277138;22;20402;-84
2022/03/03 12:23:07;;;;;;;27.77;15.48;;;9.20;99.90;;;;;;6276824;22;20057;-85
2022/03/03 12:25:51;;;;;;;24.20;13.50;;;9.30;99.90;;;;;;6274453;22;20023;-83
2022/03/03 12:28:36;;;;;;;22.35;13.18;;;9.40;99.90;;;;;;6276554;22;20015;-82
2022/03/03 12:31:27;;;;;;;25.77;15.43;;;9.50;99.90;;;;;;6274555;22;20450;-83
2022/03/03 12:34:07;;;;;;;23.42;13.57;;;9.60;99.90;;;;;;6276474;22;20134;-83
2022/03/03 12:36:36;;;;;;;24.95;14.00;;;9.60;99.90;;;;;;6276718;22;20035;-84
2022/03/03 12:39:03;;;;;;;21.15;13.27;;;9.60;99.90;;;;;;6248966;22;20022;-85
2022/03/03 12:41:48;;;;;;;25.05;14.85;;;9.80;99.90;;;;;;6276050;22;20505;-84
2022/03/03 12:44:17;;;;;;;24.43;13.77;;;9.60;99.90;;;;;;6276326;22;20024;-85
2022/03/03 12:46:45;;;;;;;25.88;13.68;;;9.70;99.90;;;;;;6276272;22;20016;-85
2022/03/03 12:49:13;;;;;;;24.83;14.65;;;9.70;99.90;;;;;;6274291;22;20099;-86
2022/03/03 12:51:47;;;;;;;25.08;14.00;;;10.00;99.90;;;;;;6275859;22;20019;-85
2022/03/03 12:54:32;;;;;;;24.42;13.82;;;9.70;99.90;;;;;;6276662;22;20039;-84
2022/03/03 12:57:12;;;;;;;22.55;13.00;;;9.70;99.90;;;;;;6276261;22;20024;-83
2022/03/03 12:59:37;;;;;;;23.73;12.75;;;9.80;99.90;;;;;;6275877;22;20027;-83
2022/03/03 13:02:03;;;;;;;21.45;12.75;;;9.80;99.90;;;;;;6277193;22;20049;-85
2022/03/03 13:04:29;;;;;;;24.15;13.85;;;9.90;99.90;;;;;;6274473;22;20023;-85
2022/03/03 13:07:06;;;;;;;22.75;13.55;;;9.90;99.90;;;;;;6275768;22;20347;-85
2022/03/03 13:09:32;;;;;;;22.75;13.15;;;10.00;99.90;;;;;;6275745;22;20049;-85
2022/03/03 13:11:57;;;;;;;21.33;11.95;;;10.10;99.90;;;;;;6276299;22;20027;-83
2022/03/03 13:14:23;;;;;;;20.25;10.48;;;10.20;99.90;;;;;;6275910;22;20366;-85
2022/03/03 13:16:49;;;;;;;22.70;12.13;;;10.20;99.90;;;;;;6278187;22;20016;-84
2022/03/03 13:19:17;;;;;;;18.67;11.82;;;10.20;99.90;;;;;;6277451;22;20062;-82
2022/03/03 13:21:46;;;;;;;18.83;11.18;;;10.30;99.90;;;;;;6276915;22;20535;-85
2022/03/03 13:24:12;;;;;;;19.80;11.40;;;10.40;99.90;;;;;;6278187;22;20012;-84
2022/03/03 13:26:46;;;;;;;19.13;11.20;;;10.40;99.90;;;;;;6277088;22;20028;-85
2022/03/03 13:29:23;;;;;;;22.25;11.95;;;10.40;99.90;;;;;;6279346;22;20101;-84
2022/03/03 13:32:12;;;;;;;18.70;10.02;;;10.40;99.90;;;;;;6278807;22;20019;-86